sensor_id;sensor_type;location;lat;lon;timestamp;P1;durP1;ratioP1;P2;durP2;ratioP2
5085;SDS011;4715;51.660;7.082;2022-11-25T00:02:23;3.87;;;1.73;;
5085;SDS011;4715;51.660;7.082;2022-11-25T00:04:45;5.47;;;1.70;;
5085;SDS011;4715;51.660;7.082;2022-11-25T00:07:07;5.83;;;2.50;;
5085;SDS011;4715;51.660;7.082;2022-11-25T00:09:28;6.03;;;1.93;;
5085;SDS011;4715;51.660;7.082;2022-11-25T00:11:50;3.07;;;1.60;;
5085;SDS011;4715;51.660;7.082;2022-11-25T00:14:13;2.70;;;1.93;;
5085;SDS011;4715;51.660;7.082;2022-11-25T00:16:35;3.60;;;1.50;;
5085;SDS011;4715;51.660;7.082;2022-11-25T00:18:58;5.03;;;1.70;;
5085;SDS011;4715;51.660;7.082;2022-11-25T00:21:21;5.17;;;2.80;;
5085;SDS011;4715;51.660;7.082;2022-11-25T00:23:48;4.17;;;1.50;;
5085;SDS011;4715;51.660;7.082;2022-11-25T00:26:11;2.33;;;1.43;;
5085;SDS011;4715;51.660;7.082;2022-11-25T00:28:34;2.37;;;1.47;;
5085;SDS011;4715;51.660;7.082;2022-11-25T00:31:02;4.40;;;2.13;;
5085;SDS011;4715;51.660;7.082;2022-11-25T00:33:25;1.97;;;1.60;;
5085;SDS011;4715;51.660;7.082;2022-11-25T00:35:48;3.40;;;1.70;;
5085;SDS011;4715;51.660;7.082;2022-11-25T00:38:09;3.13;;;1.67;;
5085;SDS011;4715;51.660;7.082;2022-11-25T00:40:31;6.90;;;1.70;;
5085;SDS011;4715;51.660;7.082;2022-11-25T00:42:53;3.27;;;1.57;;
5085;SDS011;4715;51.660;7.082;2022-11-25T00:45:32;2.90;;;1.80;;
5085;SDS011;4715;51.660;7.082;2022-11-25T00:47:54;3.73;;;3.40;;
5085;SDS011;4715;51.660;7.082;2022-11-25T00:50:16;2.23;;;1.33;;
5085;SDS011;4715;51.660;7.082;2022-11-25T00:52:41;2.00;;;1.60;;
5085;SDS011;4715;51.660;7.082;2022-11-25T00:55:04;1.67;;;1.37;;
5085;SDS011;4715;51.660;7.082;2022-11-25T00:57:26;4.27;;;1.37;;
5085;SDS011;4715;51.660;7.082;2022-11-25T00:59:49;2.23;;;1.53;;
5085;SDS011;4715;51.660;7.082;2022-11-25T01:02:11;4.83;;;1.97;;
5085;SDS011;4715;51.660;7.082;2022-11-25T01:04:34;2.63;;;2.43;;
5085;SDS011;4715;51.660;7.082;2022-11-25T01:06:56;3.90;;;1.63;;
5085;SDS011;4715;51.660;7.082;2022-11-25T01:09:20;4.23;;;1.80;;
5085;SDS011;4715;51.660;7.082;2022-11-25T01:11:42;4.47;;;1.90;;
5085;SDS011;4715;51.660;7.082;2022-11-25T01:14:04;3.47;;;1.50;;
5085;SDS011;4715;51.660;7.082;2022-11-25T01:16:26;1.77;;;1.17;;
5085;SDS011;4715;51.660;7.082;2022-11-25T01:18:49;4.63;;;2.00;;
5085;SDS011;4715;51.660;7.082;2022-11-25T01:21:12;2.23;;;1.53;;
5085;SDS011;4715;51.660;7.082;2022-11-25T01:23:35;3.97;;;1.53;;
5085;SDS011;4715;51.660;7.082;2022-11-25T01:26:01;8.50;;;2.37;;
5085;SDS011;4715;51.660;7.082;2022-11-25T01:28:23;2.80;;;1.47;;
5085;SDS011;4715;51.660;7.082;2022-11-25T01:30:44;2.90;;;2.10;;
5085;SDS011;4715;51.660;7.082;2022-11-25T01:33:06;2.40;;;1.27;;
5085;SDS011;4715;51.660;7.082;2022-11-25T01:35:28;2.60;;;1.87;;
5085;SDS011;4715;51.660;7.082;2022-11-25T01:37:50;4.43;;;1.40;;
5085;SDS011;4715;51.660;7.082;2022-11-25T01:40:12;2.47;;;1.60;;
5085;SDS011;4715;51.660;7.082;2022-11-25T01:42:40;6.43;;;2.80;;
5085;SDS011;4715;51.660;7.082;2022-11-25T01:45:09;6.37;;;1.60;;
5085;SDS011;4715;51.660;7.082;2022-11-25T01:47:55;6.00;;;2.17;;
5085;SDS011;4715;51.660;7.082;2022-11-25T01:50:20;3.57;;;1.90;;
5085;SDS011;4715;51.660;7.082;2022-11-25T01:52:46;8.33;;;2.07;;
5085;SDS011;4715;51.660;7.082;2022-11-25T01:55:10;4.73;;;1.83;;
5085;SDS011;4715;51.660;7.082;2022-11-25T01:57:36;4.03;;;1.87;;
5085;SDS011;4715;51.660;7.082;2022-11-25T02:00:03;1.63;;;1.50;;
5085;SDS011;4715;51.660;7.082;2022-11-25T02:02:28;2.43;;;1.57;;
5085;SDS011;4715;51.660;7.082;2022-11-25T02:04:50;2.67;;;1.87;;
5085;SDS011;4715;51.660;7.082;2022-11-25T02:07:14;2.03;;;1.43;;
5085;SDS011;4715;51.660;7.082;2022-11-25T02:09:40;3.03;;;1.47;;
5085;SDS011;4715;51.660;7.082;2022-11-25T02:12:04;4.60;;;2.10;;
5085;SDS011;4715;51.660;7.082;2022-11-25T02:14:28;2.50;;;1.83;;
5085;SDS011;4715;51.660;7.082;2022-11-25T02:16:49;1.90;;;1.63;;
5085;SDS011;4715;51.660;7.082;2022-11-25T02:19:13;3.13;;;1.53;;
5085;SDS011;4715;51.660;7.082;2022-11-25T02:21:48;6.30;;;1.60;;
5085;SDS011;4715;51.660;7.082;2022-11-25T02:24:14;3.80;;;1.53;;
5085;SDS011;4715;51.660;7.082;2022-11-25T02:26:44;2.70;;;1.70;;
5085;SDS011;4715;51.660;7.082;2022-11-25T02:29:08;4.80;;;2.47;;
5085;SDS011;4715;51.660;7.082;2022-11-25T02:31:31;3.43;;;1.43;;
5085;SDS011;4715;51.660;7.082;2022-11-25T02:33:52;2.80;;;1.30;;
5085;SDS011;4715;51.660;7.082;2022-11-25T02:36:15;5.40;;;1.53;;
5085;SDS011;4715;51.660;7.082;2022-11-25T02:38:40;4.00;;;1.50;;
5085;SDS011;4715;51.660;7.082;2022-11-25T02:41:05;4.53;;;2.10;;
5085;SDS011;4715;51.660;7.082;2022-11-25T02:43:32;2.27;;;1.30;;
5085;SDS011;4715;51.660;7.082;2022-11-25T02:45:57;5.83;;;1.57;;
5085;SDS011;4715;51.660;7.082;2022-11-25T02:48:21;2.13;;;1.40;;
5085;SDS011;4715;51.660;7.082;2022-11-25T02:50:42;4.30;;;1.80;;
5085;SDS011;4715;51.660;7.082;2022-11-25T02:53:04;3.20;;;1.70;;
5085;SDS011;4715;51.660;7.082;2022-11-25T02:55:27;1.90;;;1.80;;
5085;SDS011;4715;51.660;7.082;2022-11-25T02:57:49;3.43;;;2.23;;
5085;SDS011;4715;51.660;7.082;2022-11-25T03:00:12;1.60;;;1.50;;
5085;SDS011;4715;51.660;7.082;2022-11-25T03:02:35;4.67;;;1.80;;
5085;SDS011;4715;51.660;7.082;2022-11-25T03:04:58;5.43;;;1.60;;
5085;SDS011;4715;51.660;7.082;2022-11-25T03:07:20;1.63;;;1.33;;
5085;SDS011;4715;51.660;7.082;2022-11-25T03:09:42;3.17;;;1.80;;
5085;SDS011;4715;51.660;7.082;2022-11-25T03:12:03;6.27;;;2.13;;
5085;SDS011;4715;51.660;7.082;2022-11-25T03:14:40;5.13;;;1.80;;
5085;SDS011;4715;51.660;7.082;2022-11-25T03:17:03;3.10;;;1.70;;
5085;SDS011;4715;51.660;7.082;2022-11-25T03:19:25;5.07;;;2.00;;
5085;SDS011;4715;51.660;7.082;2022-11-25T03:21:47;5.40;;;2.07;;
5085;SDS011;4715;51.660;7.082;2022-11-25T03:24:09;4.80;;;1.90;;
5085;SDS011;4715;51.660;7.082;2022-11-25T03:26:31;5.90;;;1.80;;
5085;SDS011;4715;51.660;7.082;2022-11-25T03:28:53;4.80;;;1.90;;
5085;SDS011;4715;51.660;7.082;2022-11-25T03:31:15;5.17;;;2.10;;
5085;SDS011;4715;51.660;7.082;2022-11-25T03:33:38;5.97;;;3.50;;
5085;SDS011;4715;51.660;7.082;2022-11-25T03:36:00;4.87;;;1.70;;
5085;SDS011;4715;51.660;7.082;2022-11-25T03:38:22;3.10;;;1.87;;
5085;SDS011;4715;51.660;7.082;2022-11-25T03:40:43;1.50;;;1.40;;
5085;SDS011;4715;51.660;7.082;2022-11-25T03:43:06;2.20;;;1.60;;
5085;SDS011;4715;51.660;7.082;2022-11-25T03:45:28;3.53;;;1.83;;
5085;SDS011;4715;51.660;7.082;2022-11-25T03:47:50;1.93;;;1.27;;
5085;SDS011;4715;51.660;7.082;2022-11-25T03:50:13;2.73;;;1.80;;
5085;SDS011;4715;51.660;7.082;2022-11-25T03:52:35;2.30;;;1.47;;
5085;SDS011;4715;51.660;7.082;2022-11-25T03:54:58;7.07;;;2.00;;
5085;SDS011;4715;51.660;7.082;2022-11-25T03:57:21;7.60;;;2.30;;
5085;SDS011;4715;51.660;7.082;2022-11-25T03:59:43;5.63;;;2.20;;
5085;SDS011;4715;51.660;7.082;2022-11-25T04:02:04;3.97;;;2.77;;
5085;SDS011;4715;51.660;7.082;2022-11-25T04:04:26;3.80;;;1.80;;
5085;SDS011;4715;51.660;7.082;2022-11-25T04:06:49;11.57;;;2.87;;
5085;SDS011;4715;51.660;7.082;2022-11-25T04:09:11;6.93;;;2.53;;
5085;SDS011;4715;51.660;7.082;2022-11-25T04:11:33;4.60;;;2.13;;
5085;SDS011;4715;51.660;7.082;2022-11-25T04:14:13;5.40;;;2.43;;
5085;SDS011;4715;51.660;7.082;2022-11-25T04:16:35;6.00;;;2.13;;
5085;SDS011;4715;51.660;7.082;2022-11-25T04:18:57;4.30;;;3.17;;
5085;SDS011;4715;51.660;7.082;2022-11-25T04:21:19;5.33;;;2.97;;
5085;SDS011;4715;51.660;7.082;2022-11-25T04:23:42;5.83;;;2.43;;
5085;SDS011;4715;51.660;7.082;2022-11-25T04:26:04;6.13;;;2.50;;
5085;SDS011;4715;51.660;7.082;2022-11-25T04:28:25;4.40;;;2.30;;
5085;SDS011;4715;51.660;7.082;2022-11-25T04:30:47;7.90;;;2.50;;
5085;SDS011;4715;51.660;7.082;2022-11-25T04:33:09;6.30;;;2.70;;
5085;SDS011;4715;51.660;7.082;2022-11-25T04:35:31;6.13;;;2.57;;
5085;SDS011;4715;51.660;7.082;2022-11-25T04:37:52;7.50;;;2.40;;
5085;SDS011;4715;51.660;7.082;2022-11-25T04:40:16;6.63;;;2.93;;
5085;SDS011;4715;51.660;7.082;2022-11-25T04:42:37;10.57;;;2.97;;
5085;SDS011;4715;51.660;7.082;2022-11-25T04:45:00;2.50;;;2.20;;
5085;SDS011;4715;51.660;7.082;2022-11-25T04:47:23;3.63;;;1.83;;
5085;SDS011;4715;51.660;7.082;2022-11-25T04:49:45;4.20;;;2.33;;
5085;SDS011;4715;51.660;7.082;2022-11-25T04:52:07;9.93;;;3.40;;
5085;SDS011;4715;51.660;7.082;2022-11-25T04:54:29;8.20;;;2.83;;
5085;SDS011;4715;51.660;7.082;2022-11-25T04:56:52;7.30;;;2.57;;
5085;SDS011;4715;51.660;7.082;2022-11-25T04:59:14;10.03;;;2.90;;
5085;SDS011;4715;51.660;7.082;2022-11-25T05:01:53;5.60;;;2.43;;
5085;SDS011;4715;51.660;7.082;2022-11-25T05:04:15;11.30;;;3.20;;
5085;SDS011;4715;51.660;7.082;2022-11-25T05:06:37;8.40;;;2.70;;
5085;SDS011;4715;51.660;7.082;2022-11-25T05:09:01;4.97;;;2.80;;
5085;SDS011;4715;51.660;7.082;2022-11-25T05:11:23;4.70;;;3.17;;
5085;SDS011;4715;51.660;7.082;2022-11-25T05:13:46;6.73;;;2.87;;
5085;SDS011;4715;51.660;7.082;2022-11-25T05:16:10;4.30;;;2.40;;
5085;SDS011;4715;51.660;7.082;2022-11-25T05:18:32;4.30;;;2.50;;
5085;SDS011;4715;51.660;7.082;2022-11-25T05:20:54;9.43;;;2.47;;
5085;SDS011;4715;51.660;7.082;2022-11-25T05:23:20;9.10;;;2.73;;
5085;SDS011;4715;51.660;7.082;2022-11-25T05:25:42;10.90;;;2.63;;
5085;SDS011;4715;51.660;7.082;2022-11-25T05:28:06;4.03;;;2.67;;
5085;SDS011;4715;51.660;7.082;2022-11-25T05:30:30;10.03;;;4.17;;
5085;SDS011;4715;51.660;7.082;2022-11-25T05:32:51;6.20;;;2.23;;
5085;SDS011;4715;51.660;7.082;2022-11-25T05:35:13;9.03;;;3.47;;
5085;SDS011;4715;51.660;7.082;2022-11-25T05:37:35;10.77;;;3.17;;
5085;SDS011;4715;51.660;7.082;2022-11-25T05:39:57;10.00;;;4.50;;
5085;SDS011;4715;51.660;7.082;2022-11-25T05:42:20;7.60;;;4.37;;
5085;SDS011;4715;51.660;7.082;2022-11-25T05:44:42;6.03;;;2.80;;
5085;SDS011;4715;51.660;7.082;2022-11-25T05:47:05;8.00;;;3.23;;
5085;SDS011;4715;51.660;7.082;2022-11-25T05:49:27;3.87;;;2.20;;
5085;SDS011;4715;51.660;7.082;2022-11-25T05:51:48;7.80;;;3.17;;
5085;SDS011;4715;51.660;7.082;2022-11-25T05:54:10;7.23;;;2.60;;
5085;SDS011;4715;51.660;7.082;2022-11-25T05:56:32;6.00;;;3.03;;
5085;SDS011;4715;51.660;7.082;2022-11-25T05:58:54;4.03;;;2.77;;
5085;SDS011;4715;51.660;7.082;2022-11-25T06:01:18;4.40;;;2.93;;
5085;SDS011;4715;51.660;7.082;2022-11-25T06:03:42;6.97;;;2.77;;
5085;SDS011;4715;51.660;7.082;2022-11-25T06:06:04;4.53;;;2.40;;
5085;SDS011;4715;51.660;7.082;2022-11-25T06:08:26;3.27;;;1.80;;
5085;SDS011;4715;51.660;7.082;2022-11-25T06:10:49;6.50;;;2.53;;
5085;SDS011;4715;51.660;7.082;2022-11-25T06:13:11;6.77;;;2.50;;
5085;SDS011;4715;51.660;7.082;2022-11-25T06:15:32;6.70;;;2.40;;
5085;SDS011;4715;51.660;7.082;2022-11-25T06:17:55;6.70;;;3.40;;
5085;SDS011;4715;51.660;7.082;2022-11-25T06:20:19;3.67;;;2.30;;
5085;SDS011;4715;51.660;7.082;2022-11-25T06:22:41;3.03;;;2.30;;
5085;SDS011;4715;51.660;7.082;2022-11-25T06:25:03;3.40;;;2.60;;
5085;SDS011;4715;51.660;7.082;2022-11-25T06:27:26;9.10;;;3.07;;
5085;SDS011;4715;51.660;7.082;2022-11-25T06:29:48;12.57;;;3.10;;
5085;SDS011;4715;51.660;7.082;2022-11-25T06:32:10;9.77;;;2.93;;
5085;SDS011;4715;51.660;7.082;2022-11-25T06:34:35;8.10;;;3.00;;
5085;SDS011;4715;51.660;7.082;2022-11-25T06:37:02;9.93;;;2.83;;
5085;SDS011;4715;51.660;7.082;2022-11-25T06:39:24;8.43;;;3.40;;
5085;SDS011;4715;51.660;7.082;2022-11-25T06:41:46;8.70;;;2.80;;
5085;SDS011;4715;51.660;7.082;2022-11-25T06:44:08;8.67;;;3.80;;
5085;SDS011;4715;51.660;7.082;2022-11-25T06:46:30;5.90;;;3.40;;
5085;SDS011;4715;51.660;7.082;2022-11-25T06:48:52;5.50;;;3.67;;
5085;SDS011;4715;51.660;7.082;2022-11-25T06:51:14;5.93;;;3.77;;
5085;SDS011;4715;51.660;7.082;2022-11-25T06:53:38;7.43;;;2.50;;
5085;SDS011;4715;51.660;7.082;2022-11-25T06:56:02;7.43;;;3.40;;
5085;SDS011;4715;51.660;7.082;2022-11-25T06:58:27;7.73;;;3.60;;
5085;SDS011;4715;51.660;7.082;2022-11-25T07:00:50;4.17;;;2.77;;
5085;SDS011;4715;51.660;7.082;2022-11-25T07:03:12;6.00;;;2.77;;
5085;SDS011;4715;51.660;7.082;2022-11-25T07:05:34;3.93;;;2.50;;
5085;SDS011;4715;51.660;7.082;2022-11-25T07:07:55;9.47;;;3.60;;
5085;SDS011;4715;51.660;7.082;2022-11-25T07:10:20;6.70;;;3.27;;
5085;SDS011;4715;51.660;7.082;2022-11-25T07:12:42;5.40;;;3.20;;
5085;SDS011;4715;51.660;7.082;2022-11-25T07:15:05;13.87;;;3.23;;
5085;SDS011;4715;51.660;7.082;2022-11-25T07:17:27;6.97;;;2.80;;
5085;SDS011;4715;51.660;7.082;2022-11-25T07:19:49;15.87;;;3.80;;
5085;SDS011;4715;51.660;7.082;2022-11-25T07:22:11;9.30;;;4.30;;
5085;SDS011;4715;51.660;7.082;2022-11-25T07:24:32;5.47;;;2.80;;
5085;SDS011;4715;51.660;7.082;2022-11-25T07:26:56;5.93;;;2.70;;
5085;SDS011;4715;51.660;7.082;2022-11-25T07:29:17;6.17;;;3.20;;
5085;SDS011;4715;51.660;7.082;2022-11-25T07:31:41;9.87;;;3.50;;
5085;SDS011;4715;51.660;7.082;2022-11-25T07:34:05;4.30;;;2.53;;
5085;SDS011;4715;51.660;7.082;2022-11-25T07:36:30;7.97;;;2.90;;
5085;SDS011;4715;51.660;7.082;2022-11-25T07:38:53;10.93;;;3.90;;
5085;SDS011;4715;51.660;7.082;2022-11-25T07:41:16;8.13;;;3.63;;
5085;SDS011;4715;51.660;7.082;2022-11-25T07:43:42;7.20;;;2.90;;
5085;SDS011;4715;51.660;7.082;2022-11-25T07:46:08;5.47;;;2.73;;
5085;SDS011;4715;51.660;7.082;2022-11-25T07:48:32;9.07;;;3.80;;
5085;SDS011;4715;51.660;7.082;2022-11-25T07:50:54;3.10;;;2.70;;
5085;SDS011;4715;51.660;7.082;2022-11-25T07:53:15;4.53;;;2.63;;
5085;SDS011;4715;51.660;7.082;2022-11-25T07:55:37;4.07;;;3.50;;
5085;SDS011;4715;51.660;7.082;2022-11-25T07:57:59;4.47;;;2.90;;
5085;SDS011;4715;51.660;7.082;2022-11-25T08:00:23;10.80;;;3.30;;
5085;SDS011;4715;51.660;7.082;2022-11-25T08:02:44;9.57;;;3.43;;
5085;SDS011;4715;51.660;7.082;2022-11-25T08:05:08;8.70;;;4.00;;
5085;SDS011;4715;51.660;7.082;2022-11-25T08:07:31;11.47;;;3.57;;
5085;SDS011;4715;51.660;7.082;2022-11-25T08:09:53;8.10;;;3.67;;
5085;SDS011;4715;51.660;7.082;2022-11-25T08:12:14;9.67;;;4.73;;
5085;SDS011;4715;51.660;7.082;2022-11-25T08:14:36;7.73;;;4.10;;
5085;SDS011;4715;51.660;7.082;2022-11-25T08:17:00;9.80;;;4.30;;
5085;SDS011;4715;51.660;7.082;2022-11-25T08:19:25;6.00;;;3.30;;
5085;SDS011;4715;51.660;7.082;2022-11-25T08:21:46;11.83;;;3.77;;
5085;SDS011;4715;51.660;7.082;2022-11-25T08:24:08;6.70;;;2.97;;
5085;SDS011;4715;51.660;7.082;2022-11-25T08:26:35;7.17;;;3.77;;
5085;SDS011;4715;51.660;7.082;2022-11-25T08:28:57;9.53;;;3.37;;
5085;SDS011;4715;51.660;7.082;2022-11-25T08:31:21;10.47;;;3.97;;
5085;SDS011;4715;51.660;7.082;2022-11-25T08:33:47;6.43;;;3.80;;
5085;SDS011;4715;51.660;7.082;2022-11-25T08:36:10;8.37;;;3.70;;
5085;SDS011;4715;51.660;7.082;2022-11-25T08:38:32;8.53;;;3.63;;
5085;SDS011;4715;51.660;7.082;2022-11-25T08:40:55;12.80;;;4.23;;
5085;SDS011;4715;51.660;7.082;2022-11-25T08:43:17;9.13;;;4.77;;
5085;SDS011;4715;51.660;7.082;2022-11-25T08:45:41;8.33;;;3.87;;
5085;SDS011;4715;51.660;7.082;2022-11-25T08:48:04;10.97;;;3.27;;
5085;SDS011;4715;51.660;7.082;2022-11-25T08:50:27;10.43;;;4.30;;
5085;SDS011;4715;51.660;7.082;2022-11-25T08:52:49;11.73;;;4.90;;
5085;SDS011;4715;51.660;7.082;2022-11-25T08:55:11;13.13;;;5.23;;
5085;SDS011;4715;51.660;7.082;2022-11-25T08:57:33;11.60;;;3.50;;
5085;SDS011;4715;51.660;7.082;2022-11-25T08:59:55;8.57;;;4.10;;
5085;SDS011;4715;51.660;7.082;2022-11-25T09:02:17;6.33;;;4.37;;
5085;SDS011;4715;51.660;7.082;2022-11-25T09:04:39;9.27;;;5.40;;
5085;SDS011;4715;51.660;7.082;2022-11-25T09:07:04;9.53;;;3.93;;
5085;SDS011;4715;51.660;7.082;2022-11-25T09:09:26;7.37;;;3.70;;
5085;SDS011;4715;51.660;7.082;2022-11-25T09:11:48;5.57;;;4.00;;
5085;SDS011;4715;51.660;7.082;2022-11-25T09:14:10;6.40;;;4.20;;
5085;SDS011;4715;51.660;7.082;2022-11-25T09:16:32;4.57;;;3.20;;
5085;SDS011;4715;51.660;7.082;2022-11-25T09:18:53;11.17;;;4.20;;
5085;SDS011;4715;51.660;7.082;2022-11-25T09:21:19;8.30;;;3.83;;
5085;SDS011;4715;51.660;7.082;2022-11-25T09:23:42;6.67;;;3.80;;
5085;SDS011;4715;51.660;7.082;2022-11-25T09:26:04;7.20;;;4.63;;
5085;SDS011;4715;51.660;7.082;2022-11-25T09:28:27;9.47;;;4.30;;
5085;SDS011;4715;51.660;7.082;2022-11-25T09:30:49;13.43;;;4.70;;
5085;SDS011;4715;51.660;7.082;2022-11-25T09:33:11;5.33;;;3.40;;
5085;SDS011;4715;51.660;7.082;2022-11-25T09:35:33;8.10;;;3.37;;
5085;SDS011;4715;51.660;7.082;2022-11-25T09:37:57;9.00;;;5.10;;
5085;SDS011;4715;51.660;7.082;2022-11-25T09:40:24;12.40;;;4.80;;
5085;SDS011;4715;51.660;7.082;2022-11-25T09:42:56;8.97;;;3.70;;
5085;SDS011;4715;51.660;7.082;2022-11-25T09:45:45;9.83;;;4.03;;
5085;SDS011;4715;51.660;7.082;2022-11-25T09:48:41;9.63;;;3.90;;
5085;SDS011;4715;51.660;7.082;2022-11-25T09:51:19;9.47;;;3.50;;
5085;SDS011;4715;51.660;7.082;2022-11-25T09:53:43;11.23;;;4.40;;
5085;SDS011;4715;51.660;7.082;2022-11-25T09:56:13;12.83;;;4.67;;
5085;SDS011;4715;51.660;7.082;2022-11-25T09:58:48;7.90;;;4.70;;
5085;SDS011;4715;51.660;7.082;2022-11-25T10:01:16;8.43;;;4.07;;
5085;SDS011;4715;51.660;7.082;2022-11-25T10:03:42;10.30;;;4.10;;
5085;SDS011;4715;51.660;7.082;2022-11-25T10:06:10;5.70;;;4.03;;
5085;SDS011;4715;51.660;7.082;2022-11-25T10:08:36;11.00;;;4.53;;
5085;SDS011;4715;51.660;7.082;2022-11-25T10:11:01;8.67;;;4.10;;
5085;SDS011;4715;51.660;7.082;2022-11-25T10:13:36;6.83;;;4.20;;
5085;SDS011;4715;51.660;7.082;2022-11-25T10:16:04;8.20;;;4.80;;
5085;SDS011;4715;51.660;7.082;2022-11-25T10:18:37;11.03;;;5.10;;
5085;SDS011;4715;51.660;7.082;2022-11-25T10:21:02;7.37;;;4.03;;
5085;SDS011;4715;51.660;7.082;2022-11-25T10:23:25;7.87;;;4.10;;
5085;SDS011;4715;51.660;7.082;2022-11-25T10:25:54;15.10;;;4.77;;
5085;SDS011;4715;51.660;7.082;2022-11-25T10:28:20;6.83;;;4.10;;
5085;SDS011;4715;51.660;7.082;2022-11-25T10:30:45;6.90;;;4.00;;
5085;SDS011;4715;51.660;7.082;2022-11-25T10:33:13;5.67;;;4.10;;
5085;SDS011;4715;51.660;7.082;2022-11-25T10:35:40;8.63;;;6.47;;
5085;SDS011;4715;51.660;7.082;2022-11-25T10:38:11;7.00;;;4.00;;
5085;SDS011;4715;51.660;7.082;2022-11-25T10:40:35;11.67;;;4.43;;
5085;SDS011;4715;51.660;7.082;2022-11-25T10:42:57;5.87;;;3.70;;
5085;SDS011;4715;51.660;7.082;2022-11-25T10:45:25;8.17;;;4.80;;
5085;SDS011;4715;51.660;7.082;2022-11-25T10:47:57;6.00;;;3.93;;
5085;SDS011;4715;51.660;7.082;2022-11-25T10:50:35;6.80;;;5.23;;
5085;SDS011;4715;51.660;7.082;2022-11-25T10:53:09;9.23;;;3.60;;
5085;SDS011;4715;51.660;7.082;2022-11-25T10:55:38;10.80;;;4.70;;
5085;SDS011;4715;51.660;7.082;2022-11-25T10:58:19;10.10;;;5.93;;
5085;SDS011;4715;51.660;7.082;2022-11-25T11:00:47;11.57;;;4.63;;
5085;SDS011;4715;51.660;7.082;2022-11-25T11:03:24;13.43;;;5.60;;
5085;SDS011;4715;51.660;7.082;2022-11-25T11:05:48;11.83;;;4.87;;
5085;SDS011;4715;51.660;7.082;2022-11-25T11:08:15;6.13;;;3.50;;
5085;SDS011;4715;51.660;7.082;2022-11-25T11:10:43;12.13;;;4.83;;
5085;SDS011;4715;51.660;7.082;2022-11-25T11:13:05;4.90;;;4.00;;
5085;SDS011;4715;51.660;7.082;2022-11-25T11:15:43;6.80;;;4.23;;
5085;SDS011;4715;51.660;7.082;2022-11-25T11:18:13;10.97;;;4.50;;
5085;SDS011;4715;51.660;7.082;2022-11-25T11:20:45;13.87;;;4.40;;
5085;SDS011;4715;51.660;7.082;2022-11-25T11:23:09;16.23;;;4.20;;
5085;SDS011;4715;51.660;7.082;2022-11-25T11:25:35;6.73;;;3.57;;
5085;SDS011;4715;51.660;7.082;2022-11-25T11:27:58;5.30;;;4.43;;
5085;SDS011;4715;51.660;7.082;2022-11-25T11:30:23;4.23;;;3.70;;
5085;SDS011;4715;51.660;7.082;2022-11-25T11:32:53;6.13;;;3.47;;
5085;SDS011;4715;51.660;7.082;2022-11-25T11:35:19;8.73;;;3.80;;
5085;SDS011;4715;51.660;7.082;2022-11-25T11:37:47;6.60;;;3.73;;
5085;SDS011;4715;51.660;7.082;2022-11-25T11:40:18;6.17;;;3.53;;
5085;SDS011;4715;51.660;7.082;2022-11-25T11:42:50;6.17;;;4.20;;
5085;SDS011;4715;51.660;7.082;2022-11-25T11:45:26;5.37;;;3.00;;
5085;SDS011;4715;51.660;7.082;2022-11-25T11:48:03;9.00;;;4.30;;
5085;SDS011;4715;51.660;7.082;2022-11-25T11:50:32;9.87;;;3.93;;
5085;SDS011;4715;51.660;7.082;2022-11-25T11:53:04;6.33;;;4.03;;
5085;SDS011;4715;51.660;7.082;2022-11-25T11:55:37;8.20;;;4.10;;
5085;SDS011;4715;51.660;7.082;2022-11-25T11:58:11;7.87;;;4.83;;
5085;SDS011;4715;51.660;7.082;2022-11-25T12:00:43;9.00;;;4.70;;
5085;SDS011;4715;51.660;7.082;2022-11-25T12:03:10;14.90;;;4.77;;
5085;SDS011;4715;51.660;7.082;2022-11-25T12:05:36;7.63;;;4.43;;
5085;SDS011;4715;51.660;7.082;2022-11-25T12:08:02;9.63;;;4.13;;
5085;SDS011;4715;51.660;7.082;2022-11-25T12:10:30;5.87;;;3.60;;
5085;SDS011;4715;51.660;7.082;2022-11-25T12:12:59;11.90;;;4.43;;
5085;SDS011;4715;51.660;7.082;2022-11-25T12:15:32;4.13;;;2.87;;
5085;SDS011;4715;51.660;7.082;2022-11-25T12:18:00;7.87;;;3.07;;
5085;SDS011;4715;51.660;7.082;2022-11-25T12:20:31;5.13;;;2.37;;
5085;SDS011;4715;51.660;7.082;2022-11-25T12:22:59;6.63;;;2.80;;
5085;SDS011;4715;51.660;7.082;2022-11-25T12:25:26;10.93;;;2.90;;
5085;SDS011;4715;51.660;7.082;2022-11-25T12:27:56;6.87;;;2.20;;
5085;SDS011;4715;51.660;7.082;2022-11-25T12:30:21;9.10;;;3.07;;
5085;SDS011;4715;51.660;7.082;2022-11-25T12:32:54;8.47;;;2.57;;
5085;SDS011;4715;51.660;7.082;2022-11-25T12:35:25;10.33;;;3.07;;
5085;SDS011;4715;51.660;7.082;2022-11-25T12:37:58;8.10;;;2.80;;
5085;SDS011;4715;51.660;7.082;2022-11-25T12:40:26;7.07;;;2.47;;
5085;SDS011;4715;51.660;7.082;2022-11-25T12:42:53;11.90;;;3.87;;
5085;SDS011;4715;51.660;7.082;2022-11-25T12:45:23;7.60;;;2.50;;
5085;SDS011;4715;51.660;7.082;2022-11-25T12:47:46;6.70;;;2.40;;
5085;SDS011;4715;51.660;7.082;2022-11-25T12:50:13;7.63;;;2.83;;
5085;SDS011;4715;51.660;7.082;2022-11-25T12:52:40;8.03;;;2.60;;
5085;SDS011;4715;51.660;7.082;2022-11-25T12:55:22;8.20;;;2.60;;
5085;SDS011;4715;51.660;7.082;2022-11-25T12:57:57;5.63;;;2.60;;
5085;SDS011;4715;51.660;7.082;2022-11-25T13:01:01;7.80;;;2.10;;
5085;SDS011;4715;51.660;7.082;2022-11-25T13:03:48;7.97;;;3.83;;
5085;SDS011;4715;51.660;7.082;2022-11-25T13:09:26;4.93;;;3.40;;
5085;SDS011;4715;51.660;7.082;2022-11-25T13:12:06;5.80;;;2.60;;
5085;SDS011;4715;51.660;7.082;2022-11-25T13:14:51;7.77;;;2.77;;
5085;SDS011;4715;51.660;7.082;2022-11-25T13:17:21;7.43;;;2.80;;
5085;SDS011;4715;51.660;7.082;2022-11-25T13:19:46;6.93;;;3.63;;
5085;SDS011;4715;51.660;7.082;2022-11-25T13:22:22;3.40;;;2.53;;
5085;SDS011;4715;51.660;7.082;2022-11-25T13:24:48;4.03;;;2.23;;
5085;SDS011;4715;51.660;7.082;2022-11-25T13:27:27;7.17;;;2.93;;
5085;SDS011;4715;51.660;7.082;2022-11-25T13:29:52;5.07;;;2.53;;
5085;SDS011;4715;51.660;7.082;2022-11-25T13:37:51;7.83;;;2.23;;
5085;SDS011;4715;51.660;7.082;2022-11-25T13:40:19;4.60;;;3.00;;
5085;SDS011;4715;51.660;7.082;2022-11-25T13:42:54;4.20;;;2.27;;
5085;SDS011;4715;51.660;7.082;2022-11-25T13:45:23;5.47;;;2.50;;
5085;SDS011;4715;51.660;7.082;2022-11-25T13:47:47;5.93;;;2.30;;
5085;SDS011;4715;51.660;7.082;2022-11-25T13:50:17;8.40;;;2.87;;
5085;SDS011;4715;51.660;7.082;2022-11-25T13:52:43;8.53;;;3.40;;
5085;SDS011;4715;51.660;7.082;2022-11-25T13:55:30;7.10;;;2.90;;
5085;SDS011;4715;51.660;7.082;2022-11-25T13:58:06;8.00;;;2.53;;
5085;SDS011;4715;51.660;7.082;2022-11-25T14:00:42;7.43;;;2.63;;
5085;SDS011;4715;51.660;7.082;2022-11-25T14:06:07;10.17;;;3.40;;
5085;SDS011;4715;51.660;7.082;2022-11-25T14:08:40;12.20;;;3.20;;
5085;SDS011;4715;51.660;7.082;2022-11-25T14:11:28;6.53;;;2.93;;
5085;SDS011;4715;51.660;7.082;2022-11-25T14:14:13;4.97;;;2.30;;
5085;SDS011;4715;51.660;7.082;2022-11-25T14:16:56;4.83;;;2.73;;
5085;SDS011;4715;51.660;7.082;2022-11-25T14:19:32;17.10;;;3.10;;
5085;SDS011;4715;51.660;7.082;2022-11-25T14:22:14;7.63;;;2.90;;
5085;SDS011;4715;51.660;7.082;2022-11-25T14:24:58;6.00;;;3.07;;
5085;SDS011;4715;51.660;7.082;2022-11-25T14:27:27;20.77;;;4.50;;
5085;SDS011;4715;51.660;7.082;2022-11-25T14:29:57;7.20;;;2.83;;
5085;SDS011;4715;51.660;7.082;2022-11-25T14:32:26;6.53;;;3.60;;
5085;SDS011;4715;51.660;7.082;2022-11-25T14:34:55;8.50;;;2.67;;
5085;SDS011;4715;51.660;7.082;2022-11-25T14:37:26;5.50;;;2.23;;
5085;SDS011;4715;51.660;7.082;2022-11-25T14:39:55;12.30;;;3.53;;
5085;SDS011;4715;51.660;7.082;2022-11-25T14:42:20;5.53;;;2.90;;
5085;SDS011;4715;51.660;7.082;2022-11-25T14:44:46;4.13;;;2.80;;
5085;SDS011;4715;51.660;7.082;2022-11-25T14:47:11;8.50;;;3.30;;
5085;SDS011;4715;51.660;7.082;2022-11-25T14:49:43;6.23;;;2.30;;
5085;SDS011;4715;51.660;7.082;2022-11-25T14:52:05;10.27;;;2.87;;
5085;SDS011;4715;51.660;7.082;2022-11-25T14:54:28;9.53;;;3.73;;
5085;SDS011;4715;51.660;7.082;2022-11-25T14:56:49;7.23;;;2.77;;
5085;SDS011;4715;51.660;7.082;2022-11-25T14:59:11;6.80;;;3.40;;
5085;SDS011;4715;51.660;7.082;2022-11-25T15:01:35;9.40;;;3.20;;
5085;SDS011;4715;51.660;7.082;2022-11-25T15:04:04;20.37;;;4.23;;
5085;SDS011;4715;51.660;7.082;2022-11-25T15:06:28;5.30;;;3.07;;
5085;SDS011;4715;51.660;7.082;2022-11-25T15:08:55;8.00;;;3.97;;
5085;SDS011;4715;51.660;7.082;2022-11-25T15:11:23;9.20;;;3.77;;
5085;SDS011;4715;51.660;7.082;2022-11-25T15:13:50;6.90;;;3.73;;
5085;SDS011;4715;51.660;7.082;2022-11-25T15:16:18;5.80;;;3.40;;